createdAt,value
2019-03-30T00:02:26.818Z,8.20
2019-03-30T00:05:34.057Z,8.13
2019-03-30T00:08:40.311Z,8.80
2019-03-30T00:11:46.533Z,8.30
2019-03-30T00:14:52.905Z,9.00
2019-03-30T00:17:59.110Z,8.60
2019-03-30T00:21:05.372Z,8.97
2019-03-30T00:24:12.692Z,8.30
2019-03-30T00:27:19.061Z,8.30
2019-03-30T00:30:25.706Z,8.00
2019-03-30T00:33:31.903Z,8.93
2019-03-30T00:36:38.173Z,8.40
2019-03-30T00:39:44.398Z,8.47
2019-03-30T00:42:50.663Z,8.07
2019-03-30T00:45:56.888Z,7.87
2019-03-30T00:49:03.141Z,8.40
2019-03-30T00:52:09.349Z,8.37
2019-03-30T00:55:15.640Z,8.60
2019-03-30T00:58:21.894Z,7.83
2019-03-30T01:01:28.183Z,7.83
2019-03-30T01:04:34.666Z,7.03
2019-03-30T01:07:40.983Z,8.13
2019-03-30T01:10:47.280Z,7.80
2019-03-30T01:13:53.643Z,7.13
2019-03-30T01:16:59.898Z,7.50
2019-03-30T01:20:06.635Z,7.30
2019-03-30T01:23:13.799Z,7.63
2019-03-30T01:26:20.016Z,7.20
2019-03-30T01:29:26.383Z,7.60
2019-03-30T01:32:35.078Z,7.87
2019-03-30T01:35:41.005Z,7.83
2019-03-30T01:39:01.586Z,8.40
2019-03-30T01:42:08.664Z,7.50
2019-03-30T01:45:15.003Z,7.70
2019-03-30T01:48:22.448Z,7.50
2019-03-30T01:51:28.672Z,8.20
2019-03-30T01:54:36.128Z,6.97
2019-03-30T01:57:42.353Z,7.53
2019-03-30T02:00:48.611Z,7.73
2019-03-30T02:03:55.008Z,8.97
2019-03-30T02:07:01.465Z,9.00
2019-03-30T02:10:08.847Z,8.00
2019-03-30T02:13:15.344Z,8.30
2019-03-30T02:16:21.608Z,8.67
2019-03-30T02:19:29.271Z,8.30
2019-03-30T02:22:35.485Z,9.40
2019-03-30T02:25:42.081Z,8.47
2019-03-30T02:28:48.351Z,9.37
2019-03-30T02:31:54.619Z,9.27
2019-03-30T02:35:00.815Z,9.03
2019-03-30T02:38:07.294Z,9.57
2019-03-30T02:41:13.482Z,10.77
2019-03-30T02:44:19.748Z,10.83
2019-03-30T02:47:26.006Z,10.47
2019-03-30T02:50:48.628Z,10.73
2019-03-30T02:53:40.197Z,10.03
2019-03-30T02:56:47.554Z,9.90
2019-03-30T02:59:54.756Z,9.77
2019-03-30T03:03:00.993Z,8.93
2019-03-30T03:06:07.254Z,8.93
2019-03-30T03:09:13.543Z,9.43
2019-03-30T03:12:19.731Z,9.60
2019-03-30T03:15:26.033Z,9.67
2019-03-30T03:18:32.269Z,9.70
2019-03-30T03:21:38.508Z,9.77
2019-03-30T03:24:44.737Z,10.13
2019-03-30T03:27:51.172Z,10.90
2019-03-30T03:30:57.423Z,10.30
2019-03-30T03:34:03.691Z,10.90
2019-03-30T03:37:09.947Z,10.83
2019-03-30T03:40:16.263Z,10.20
2019-03-30T03:43:22.534Z,11.50
2019-03-30T03:46:28.739Z,11.30
2019-03-30T03:49:34.977Z,11.23
2019-03-30T03:52:42.182Z,12.27
2019-03-30T03:55:48.632Z,12.07
2019-03-30T03:58:57.876Z,12.80
2019-03-30T04:02:04.816Z,13.60
2019-03-30T04:05:11.476Z,14.83
2019-03-30T04:08:17.893Z,15.20
2019-03-30T04:11:26.183Z,13.90
2019-03-30T04:14:34.342Z,14.10
2019-03-30T04:17:41.847Z,15.30
2019-03-30T04:20:48.063Z,14.27
2019-03-30T04:23:54.585Z,15.03
2019-03-30T04:27:00.795Z,15.60
2019-03-30T04:30:07.638Z,15.30
2019-03-30T04:33:13.886Z,15.03
2019-03-30T04:36:20.115Z,15.07
2019-03-30T04:39:26.390Z,15.50
2019-03-30T04:42:32.601Z,15.00
2019-03-30T04:45:38.853Z,14.17
2019-03-30T04:48:45.077Z,14.33
2019-03-30T04:51:57.581Z,16.90
2019-03-30T04:54:59.258Z,15.30
2019-03-30T04:58:09.083Z,14.47
2019-03-30T05:01:13.617Z,15.80
2019-03-30T05:04:19.835Z,15.10
2019-03-30T05:07:26.224Z,15.37
2019-03-30T05:10:32.465Z,14.90
2019-03-30T05:13:38.770Z,16.20
2019-03-30T05:16:46.146Z,16.07
2019-03-30T05:19:52.414Z,15.73
2019-03-30T05:22:58.636Z,15.03
2019-03-30T05:26:04.966Z,15.53
2019-03-30T05:29:11.221Z,14.97
2019-03-30T05:32:17.461Z,14.60
2019-03-30T05:35:23.673Z,12.90
2019-03-30T05:38:29.909Z,14.40
2019-03-30T05:41:36.203Z,15.13
2019-03-30T05:44:42.411Z,15.77
2019-03-30T05:47:48.659Z,14.87
2019-03-30T05:50:54.877Z,14.13
2019-03-30T05:54:01.334Z,14.60
2019-03-30T05:57:07.698Z,16.93
2019-03-30T06:00:17.446Z,15.07
2019-03-30T06:03:23.693Z,16.30
2019-03-30T06:06:30.098Z,15.70
2019-03-30T06:09:36.302Z,15.67
2019-03-30T06:12:42.592Z,15.30
2019-03-30T06:15:48.962Z,15.97
2019-03-30T06:18:55.249Z,15.10
2019-03-30T06:22:01.476Z,15.70
2019-03-30T06:25:07.976Z,14.87
2019-03-30T06:28:14.205Z,14.57
2019-03-30T06:31:20.583Z,15.57
2019-03-30T06:34:26.882Z,14.43
2019-03-30T06:37:33.215Z,15.87
2019-03-30T06:40:39.759Z,14.33
2019-03-30T06:43:45.961Z,12.63
2019-03-30T06:46:52.401Z,18.67
2019-03-30T06:49:58.638Z,20.93
2019-03-30T06:53:09.042Z,21.03
2019-03-30T06:56:18.504Z,14.23
2019-03-30T06:59:24.753Z,19.70
2019-03-30T07:02:31.109Z,16.37
2019-03-30T07:05:44.238Z,19.33
2019-03-30T07:08:53.651Z,19.00
2019-03-30T07:12:02.741Z,15.27
2019-03-30T07:15:11.761Z,17.57
2019-03-30T07:18:18.889Z,15.37
2019-03-30T07:21:25.226Z,35.03
2019-03-30T07:24:31.446Z,17.07
2019-03-30T07:27:37.767Z,17.93
2019-03-30T07:30:44.083Z,17.80
2019-03-30T07:33:50.447Z,29.97
2019-03-30T07:36:56.646Z,19.77
2019-03-30T07:40:02.924Z,18.20
2019-03-30T07:43:09.301Z,25.03
2019-03-30T07:46:15.553Z,22.33
2019-03-30T07:49:21.822Z,15.63
2019-03-30T07:52:28.078Z,17.17
2019-03-30T07:55:34.914Z,16.70
2019-03-30T07:58:41.417Z,22.47
2019-03-30T08:01:47.683Z,31.23
2019-03-30T08:04:54.133Z,17.93
2019-03-30T08:08:00.394Z,15.60
2019-03-30T08:11:06.766Z,16.57
2019-03-30T08:14:13.181Z,17.73
2019-03-30T08:17:19.619Z,17.80
2019-03-30T08:20:25.902Z,17.73
2019-03-30T08:23:40.163Z,18.40
2019-03-30T08:26:40.124Z,16.53
2019-03-30T08:29:46.362Z,15.70
2019-03-30T08:32:52.799Z,16.50
2019-03-30T08:35:59.237Z,15.53
2019-03-30T08:39:07.460Z,16.13
2019-03-30T08:42:13.757Z,16.40
2019-03-30T08:45:20.174Z,15.13
2019-03-30T08:48:26.875Z,15.23
2019-03-30T08:51:33.460Z,15.50
2019-03-30T08:54:39.830Z,15.30
2019-03-30T08:57:46.433Z,15.33
2019-03-30T09:00:52.749Z,16.43
2019-03-30T09:03:59.008Z,16.40
2019-03-30T09:07:05.275Z,14.93
2019-03-30T09:10:11.603Z,13.40
2019-03-30T09:13:17.937Z,11.50
2019-03-30T09:16:24.181Z,12.43
2019-03-30T09:19:30.453Z,13.97
2019-03-30T09:22:36.909Z,11.37
2019-03-30T09:25:43.127Z,13.70
2019-03-30T09:28:49.417Z,12.87
2019-03-30T09:31:55.792Z,12.57
2019-03-30T09:35:02.583Z,10.13
2019-03-30T09:38:08.991Z,10.53
2019-03-30T09:41:15.239Z,11.40
2019-03-30T09:44:21.546Z,11.97
2019-03-30T09:47:27.783Z,11.30
2019-03-30T09:50:34.166Z,10.90
2019-03-30T09:53:40.421Z,11.07
2019-03-30T09:56:46.709Z,10.80
2019-03-30T09:59:53.104Z,9.93
2019-03-30T10:02:59.484Z,10.80
2019-03-30T10:06:05.916Z,10.30
2019-03-30T10:09:12.222Z,9.80
2019-03-30T10:12:18.485Z,10.57
2019-03-30T10:15:24.798Z,10.70
2019-03-30T10:18:31.055Z,9.63
2019-03-30T10:21:37.343Z,10.47
2019-03-30T10:24:43.658Z,10.80
2019-03-30T10:27:49.910Z,10.20
2019-03-30T10:30:56.185Z,10.70
2019-03-30T10:34:02.449Z,15.63
2019-03-30T10:37:08.853Z,17.03
2019-03-30T10:40:15.373Z,22.73
2019-03-30T10:43:21.594Z,11.20
2019-03-30T10:46:27.902Z,29.03
2019-03-30T10:49:34.203Z,12.27
2019-03-30T10:52:40.417Z,17.40
2019-03-30T10:55:46.643Z,11.90
2019-03-30T10:58:52.929Z,26.70
2019-03-30T11:01:59.177Z,19.73
2019-03-30T11:05:05.707Z,11.37
2019-03-30T11:08:11.950Z,11.00
2019-03-30T11:11:18.410Z,12.13
2019-03-30T11:14:24.774Z,12.37
2019-03-30T11:17:31.111Z,13.93
2019-03-30T11:20:37.380Z,11.47
2019-03-30T11:23:43.668Z,11.40
2019-03-30T11:26:49.945Z,11.90
2019-03-30T11:29:56.284Z,10.57
2019-03-30T11:33:02.771Z,11.37
2019-03-30T11:36:09.046Z,10.97
2019-03-30T11:39:16.349Z,11.33
2019-03-30T11:42:22.597Z,11.03
2019-03-30T11:45:28.965Z,11.20
2019-03-30T11:48:37.400Z,11.57
2019-03-30T11:51:43.334Z,15.27
2019-03-30T11:54:49.592Z,11.03
2019-03-30T11:57:55.843Z,14.20
2019-03-30T12:01:02.090Z,16.23
2019-03-30T12:04:08.372Z,23.77
2019-03-30T12:07:14.669Z,17.37
2019-03-30T12:10:20.978Z,11.27
2019-03-30T12:13:27.224Z,11.50
2019-03-30T12:16:33.588Z,10.90
2019-03-30T12:19:39.901Z,11.27
2019-03-30T12:22:46.186Z,11.63
2019-03-30T12:25:52.482Z,20.83
2019-03-30T12:28:58.724Z,18.03
2019-03-30T12:32:05.004Z,18.47
2019-03-30T12:35:11.544Z,16.43
2019-03-30T12:38:17.907Z,16.07
2019-03-30T12:41:24.297Z,20.30
2019-03-30T12:44:30.517Z,12.00
2019-03-30T12:47:36.747Z,10.93
2019-03-30T12:50:42.967Z,11.47
2019-03-30T12:53:50.631Z,11.40
2019-03-30T12:56:57.149Z,14.07
2019-03-30T13:00:03.435Z,11.93
2019-03-30T13:03:09.787Z,11.70
2019-03-30T13:06:17.104Z,15.57
2019-03-30T13:09:23.409Z,11.47
2019-03-30T13:12:29.722Z,10.13
2019-03-30T13:15:35.963Z,16.53
2019-03-30T13:18:42.272Z,10.60
2019-03-30T13:21:52.751Z,19.10
2019-03-30T13:24:56.550Z,14.33
2019-03-30T13:28:02.920Z,20.47
2019-03-30T13:31:09.259Z,14.07
2019-03-30T13:34:15.589Z,24.20
2019-03-30T13:37:23.334Z,25.63
2019-03-30T13:40:29.580Z,14.93
2019-03-30T13:43:36.022Z,21.90
2019-03-30T13:46:42.281Z,12.43
2019-03-30T13:49:48.565Z,11.93
2019-03-30T13:52:54.876Z,11.33
2019-03-30T13:56:01.162Z,11.17
2019-03-30T13:59:08.045Z,10.83
2019-03-30T14:02:14.371Z,12.07
2019-03-30T14:05:20.583Z,11.13
2019-03-30T14:08:29.667Z,10.37
2019-03-30T14:11:35.926Z,25.83
2019-03-30T14:14:42.161Z,13.30
2019-03-30T14:17:48.380Z,11.47
2019-03-30T14:20:54.637Z,11.23
2019-03-30T14:24:00.874Z,11.60
2019-03-30T14:27:07.164Z,10.97
2019-03-30T14:30:13.758Z,11.47
2019-03-30T14:33:20.072Z,11.23
2019-03-30T14:36:26.949Z,11.33
2019-03-30T14:39:33.397Z,11.63
2019-03-30T14:42:39.668Z,12.23
2019-03-30T14:45:45.916Z,11.63
2019-03-30T14:48:52.169Z,11.27
2019-03-30T14:51:58.415Z,12.57
2019-03-30T14:55:04.874Z,11.90
2019-03-30T14:58:11.183Z,10.97
2019-03-30T15:01:17.610Z,12.83
2019-03-30T15:04:23.860Z,11.37
2019-03-30T15:07:30.241Z,11.73
2019-03-30T15:10:36.461Z,11.13
2019-03-30T15:13:42.698Z,11.43
2019-03-30T15:16:48.961Z,12.30
2019-03-30T15:19:55.271Z,11.10
2019-03-30T15:23:01.622Z,11.33
2019-03-30T15:26:07.901Z,11.43
2019-03-30T15:29:14.167Z,11.60
2019-03-30T15:32:20.410Z,10.93
2019-03-30T15:35:26.710Z,11.47
2019-03-30T15:38:33.011Z,10.90
2019-03-30T15:41:39.270Z,11.17
2019-03-30T15:44:45.563Z,10.87
2019-03-30T15:47:51.856Z,12.13
2019-03-30T15:50:58.143Z,11.50
2019-03-30T15:54:04.592Z,11.57
2019-03-30T15:57:14.230Z,10.80
2019-03-30T16:00:19.429Z,12.00
2019-03-30T16:03:25.726Z,10.93
2019-03-30T16:06:31.937Z,10.93
2019-03-30T16:09:38.454Z,12.10
2019-03-30T16:12:44.681Z,11.53
2019-03-30T16:15:50.931Z,10.63
2019-03-30T16:18:57.171Z,11.23
2019-03-30T16:22:03.444Z,12.40
2019-03-30T16:25:10.255Z,12.23
2019-03-30T16:28:17.084Z,11.57
2019-03-30T16:31:23.406Z,11.57
2019-03-30T16:34:29.642Z,13.00
2019-03-30T16:37:36.115Z,13.40
2019-03-30T16:40:42.406Z,12.47
2019-03-30T16:43:48.694Z,13.07
2019-03-30T16:46:57.394Z,17.70
2019-03-30T16:50:03.058Z,25.60
2019-03-30T16:53:09.498Z,12.03
2019-03-30T16:56:15.850Z,15.10
2019-03-30T16:59:22.145Z,12.87
2019-03-30T17:02:28.533Z,13.27
2019-03-30T17:05:34.899Z,13.37
2019-03-30T17:08:41.138Z,14.07
2019-03-30T17:11:47.419Z,13.57
2019-03-30T17:14:53.650Z,14.27
2019-03-30T17:17:59.925Z,15.00
2019-03-30T17:21:06.191Z,14.40
2019-03-30T17:24:12.508Z,12.30
2019-03-30T17:27:18.725Z,15.00
2019-03-30T17:30:24.978Z,16.27
2019-03-30T17:33:31.244Z,19.13
2019-03-30T17:36:37.605Z,18.03
2019-03-30T17:39:43.869Z,20.43
2019-03-30T17:42:50.148Z,21.60
2019-03-30T17:45:56.550Z,18.40
2019-03-30T17:49:02.810Z,17.80
2019-03-30T17:52:09.202Z,20.53
2019-03-30T17:55:15.977Z,17.80
2019-03-30T17:58:22.228Z,18.63
2019-03-30T18:01:28.575Z,19.13
2019-03-30T18:04:34.861Z,18.53
2019-03-30T18:07:41.324Z,18.00
2019-03-30T18:10:47.694Z,17.77
2019-03-30T18:13:53.953Z,18.57
2019-03-30T18:17:00.197Z,18.37
2019-03-30T18:20:07.222Z,18.10
2019-03-30T18:23:13.788Z,18.17
2019-03-30T18:26:20.123Z,18.43
2019-03-30T18:29:26.349Z,17.63
2019-03-30T18:32:33.137Z,19.03
2019-03-30T18:35:41.400Z,19.00
2019-03-30T18:38:50.399Z,17.87
2019-03-30T18:41:56.656Z,19.20
2019-03-30T18:45:03.525Z,18.00
2019-03-30T18:48:14.344Z,18.70
2019-03-30T18:51:21.725Z,18.93
2019-03-30T18:54:29.646Z,16.57
2019-03-30T18:57:35.950Z,17.53
2019-03-30T19:00:42.200Z,18.10
2019-03-30T19:03:48.535Z,17.63
2019-03-30T19:06:54.769Z,15.97
2019-03-30T19:10:01.018Z,16.53
2019-03-30T19:13:07.557Z,16.10
2019-03-30T19:16:13.840Z,16.27
2019-03-30T19:19:20.112Z,16.80
2019-03-30T19:22:26.395Z,16.03
2019-03-30T19:25:32.611Z,15.80
2019-03-30T19:28:38.867Z,15.53
2019-03-30T19:31:45.204Z,14.40
2019-03-30T19:34:51.791Z,16.43
2019-03-30T19:37:58.036Z,14.73
2019-03-30T19:41:04.380Z,15.30
2019-03-30T19:44:10.613Z,15.40
2019-03-30T19:47:16.895Z,15.33
2019-03-30T19:50:23.136Z,15.03
2019-03-30T19:53:29.346Z,14.83
2019-03-30T19:56:35.651Z,16.07
2019-03-30T19:59:41.855Z,15.43
2019-03-30T20:02:48.429Z,15.97
2019-03-30T20:05:54.822Z,14.73
2019-03-30T20:09:01.126Z,15.40
2019-03-30T20:12:09.005Z,13.57
2019-03-30T20:15:15.375Z,14.60
2019-03-30T20:18:21.676Z,15.07
2019-03-30T20:21:27.918Z,14.50
2019-03-30T20:24:34.817Z,14.77
2019-03-30T20:27:41.210Z,14.97
2019-03-30T20:30:47.551Z,15.53
2019-03-30T20:33:53.830Z,12.00
2019-03-30T20:37:00.141Z,13.80
2019-03-30T20:40:07.771Z,13.70
2019-03-30T20:43:14.084Z,12.77
2019-03-30T20:46:20.434Z,12.77
2019-03-30T20:49:26.667Z,12.20
2019-03-30T20:52:32.951Z,14.37
2019-03-30T20:55:39.195Z,13.07
2019-03-30T20:58:45.610Z,12.80
2019-03-30T21:01:51.938Z,12.03
2019-03-30T21:04:58.175Z,13.37
2019-03-30T21:08:04.526Z,13.17
2019-03-30T21:11:11.757Z,12.93
2019-03-30T21:14:18.344Z,12.13
2019-03-30T21:17:24.574Z,13.20
2019-03-30T21:20:30.920Z,13.43
2019-03-30T21:23:37.169Z,14.73
2019-03-30T21:26:43.443Z,14.13
2019-03-30T21:29:54.723Z,14.50
2019-03-30T21:32:57.762Z,14.97
2019-03-30T21:36:04.191Z,15.97
2019-03-30T21:39:11.022Z,16.17
2019-03-30T21:42:17.474Z,17.43
2019-03-30T21:45:23.701Z,16.60
2019-03-30T21:48:30.027Z,16.33
2019-03-30T21:51:36.248Z,16.20
2019-03-30T21:54:42.539Z,16.17
2019-03-30T21:57:48.785Z,16.10
2019-03-30T22:00:55.091Z,17.00
2019-03-30T22:04:01.531Z,16.20
2019-03-30T22:07:08.872Z,15.53
2019-03-30T22:10:18.025Z,15.73
2019-03-30T22:13:24.354Z,16.83
2019-03-30T22:16:30.630Z,16.57
2019-03-30T22:19:36.858Z,15.30
2019-03-30T22:22:43.104Z,15.27
2019-03-30T22:25:49.388Z,15.60
2019-03-30T22:28:55.610Z,16.57
2019-03-30T22:32:02.000Z,15.87
2019-03-30T22:35:08.482Z,16.23
2019-03-30T22:38:14.753Z,14.87
2019-03-30T22:41:20.984Z,15.27
2019-03-30T22:44:27.229Z,14.63
2019-03-30T22:47:33.556Z,15.63
2019-03-30T22:50:39.958Z,15.00
2019-03-30T22:53:47.312Z,15.47
2019-03-30T22:56:53.581Z,13.33
2019-03-30T22:59:59.947Z,13.87
2019-03-30T23:03:06.925Z,13.93
2019-03-30T23:06:13.184Z,14.93
2019-03-30T23:09:19.417Z,14.60
2019-03-30T23:12:25.670Z,15.60
2019-03-30T23:15:33.439Z,14.60
2019-03-30T23:18:39.733Z,15.90
2019-03-30T23:21:46.041Z,14.93
2019-03-30T23:24:52.303Z,18.33
2019-03-30T23:27:58.584Z,19.87
2019-03-30T23:31:04.829Z,21.63
2019-03-30T23:34:11.266Z,20.53
2019-03-30T23:37:17.556Z,21.87
2019-03-30T23:40:23.794Z,26.30
2019-03-30T23:43:30.074Z,26.07
2019-03-30T23:46:36.333Z,25.37
2019-03-30T23:49:42.660Z,24.03
2019-03-30T23:52:48.904Z,26.63
2019-03-30T23:55:55.122Z,22.37
2019-03-30T23:59:01.344Z,19.33
